sensor_id;sensor_type;location;lat;lon;timestamp;temperature;humidity
3868;DHT22;1949;48.152;11.528;2023-03-21T00:01:22;14.70;42.40
3868;DHT22;1949;48.152;11.528;2023-03-21T00:03:58;14.60;42.20
3868;DHT22;1949;48.152;11.528;2023-03-21T00:06:32;14.60;42.30
3868;DHT22;1949;48.152;11.528;2023-03-21T00:08:57;14.60;42.30
3868;DHT22;1949;48.152;11.528;2023-03-21T00:11:26;14.60;42.40
3868;DHT22;1949;48.152;11.528;2023-03-21T00:13:52;14.50;42.40
3868;DHT22;1949;48.152;11.528;2023-03-21T00:16:23;14.60;42.50
3868;DHT22;1949;48.152;11.528;2023-03-21T00:18:58;14.60;42.60
3868;DHT22;1949;48.152;11.528;2023-03-21T00:21:29;14.60;42.60
3868;DHT22;1949;48.152;11.528;2023-03-21T00:24:07;14.70;42.70
3868;DHT22;1949;48.152;11.528;2023-03-21T00:26:38;14.70;42.70
3868;DHT22;1949;48.152;11.528;2023-03-21T00:29:19;14.70;42.70
3868;DHT22;1949;48.152;11.528;2023-03-21T00:31:45;14.80;42.60
3868;DHT22;1949;48.152;11.528;2023-03-21T00:34:22;14.70;42.40
3868;DHT22;1949;48.152;11.528;2023-03-21T00:36:48;14.80;42.70
3868;DHT22;1949;48.152;11.528;2023-03-21T00:39:20;14.80;42.60
3868;DHT22;1949;48.152;11.528;2023-03-21T00:41:57;14.80;42.70
3868;DHT22;1949;48.152;11.528;2023-03-21T00:44:29;14.90;42.80
3868;DHT22;1949;48.152;11.528;2023-03-21T00:47:11;14.90;42.70
3868;DHT22;1949;48.152;11.528;2023-03-21T00:49:39;15.00;42.80
3868;DHT22;1949;48.152;11.528;2023-03-21T00:52:08;15.00;42.70
3868;DHT22;1949;48.152;11.528;2023-03-21T00:54:39;15.00;42.60
3868;DHT22;1949;48.152;11.528;2023-03-21T00:57:13;15.00;42.40
3868;DHT22;1949;48.152;11.528;2023-03-21T00:59:46;15.00;42.50
3868;DHT22;1949;48.152;11.528;2023-03-21T01:02:33;15.00;42.60
3868;DHT22;1949;48.152;11.528;2023-03-21T01:05:01;15.00;42.70
3868;DHT22;1949;48.152;11.528;2023-03-21T01:07:27;15.00;42.70
3868;DHT22;1949;48.152;11.528;2023-03-21T01:10:12;15.00;42.70
3868;DHT22;1949;48.152;11.528;2023-03-21T01:12:39;15.00;42.70
3868;DHT22;1949;48.152;11.528;2023-03-21T01:15:05;15.00;42.70
3868;DHT22;1949;48.152;11.528;2023-03-21T01:17:36;15.10;42.90
3868;DHT22;1949;48.152;11.528;2023-03-21T01:20:06;15.20;42.90
3868;DHT22;1949;48.152;11.528;2023-03-21T01:22:33;15.20;42.80
3868;DHT22;1949;48.152;11.528;2023-03-21T01:25:01;15.30;42.70
3868;DHT22;1949;48.152;11.528;2023-03-21T01:27:37;15.30;42.70
3868;DHT22;1949;48.152;11.528;2023-03-21T01:30:21;15.30;42.70
3868;DHT22;1949;48.152;11.528;2023-03-21T01:32:47;15.30;42.50
3868;DHT22;1949;48.152;11.528;2023-03-21T01:35:14;15.40;42.60
3868;DHT22;1949;48.152;11.528;2023-03-21T01:37:44;15.40;42.50
3868;DHT22;1949;48.152;11.528;2023-03-21T01:40:16;15.30;42.50
3868;DHT22;1949;48.152;11.528;2023-03-21T01:42:51;15.30;42.50
3868;DHT22;1949;48.152;11.528;2023-03-21T01:48:28;15.20;42.40
3868;DHT22;1949;48.152;11.528;2023-03-21T01:51:00;15.20;42.50
3868;DHT22;1949;48.152;11.528;2023-03-21T01:53:27;15.20;42.70
3868;DHT22;1949;48.152;11.528;2023-03-21T01:56:05;15.20;42.70
3868;DHT22;1949;48.152;11.528;2023-03-21T01:58:33;15.20;42.70
3868;DHT22;1949;48.152;11.528;2023-03-21T02:01:01;15.20;42.70
3868;DHT22;1949;48.152;11.528;2023-03-21T02:03:45;15.30;42.80
3868;DHT22;1949;48.152;11.528;2023-03-21T02:09:26;15.40;42.80
3868;DHT22;1949;48.152;11.528;2023-03-21T02:11:53;15.30;42.60
3868;DHT22;1949;48.152;11.528;2023-03-21T02:14:21;15.40;42.70
3868;DHT22;1949;48.152;11.528;2023-03-21T02:25:55;15.50;42.80
3868;DHT22;1949;48.152;11.528;2023-03-21T02:28:32;15.40;42.70
3868;DHT22;1949;48.152;11.528;2023-03-21T02:34:25;15.50;42.80
3868;DHT22;1949;48.152;11.528;2023-03-21T02:42:52;15.50;42.80
3868;DHT22;1949;48.152;11.528;2023-03-21T02:45:21;15.60;42.70
3868;DHT22;1949;48.152;11.528;2023-03-21T02:47:54;15.50;42.70
3868;DHT22;1949;48.152;11.528;2023-03-21T02:53:09;15.50;42.70
3868;DHT22;1949;48.152;11.528;2023-03-21T02:55:44;15.50;42.70
3868;DHT22;1949;48.152;11.528;2023-03-21T02:58:14;15.60;42.80
3868;DHT22;1949;48.152;11.528;2023-03-21T03:00:42;15.50;42.70
3868;DHT22;1949;48.152;11.528;2023-03-21T03:03:12;15.50;42.60
3868;DHT22;1949;48.152;11.528;2023-03-21T03:05:44;15.50;42.50
3868;DHT22;1949;48.152;11.528;2023-03-21T03:22:58;15.10;42.90
3868;DHT22;1949;48.152;11.528;2023-03-21T03:26:08;15.10;43.00
3868;DHT22;1949;48.152;11.528;2023-03-21T03:28:43;15.20;43.10
3868;DHT22;1949;48.152;11.528;2023-03-21T03:31:15;15.10;42.90
3868;DHT22;1949;48.152;11.528;2023-03-21T03:33:48;15.10;43.00
3868;DHT22;1949;48.152;11.528;2023-03-21T03:36:28;15.10;43.10
3868;DHT22;1949;48.152;11.528;2023-03-21T03:39:06;15.10;43.10
3868;DHT22;1949;48.152;11.528;2023-03-21T03:41:39;15.20;43.20
3868;DHT22;1949;48.152;11.528;2023-03-21T03:44:10;15.30;43.20
3868;DHT22;1949;48.152;11.528;2023-03-21T03:46:46;15.20;43.10
3868;DHT22;1949;48.152;11.528;2023-03-21T03:49:20;15.30;43.20
3868;DHT22;1949;48.152;11.528;2023-03-21T03:54:30;15.30;43.00
3868;DHT22;1949;48.152;11.528;2023-03-21T03:57:05;15.40;43.10
3868;DHT22;1949;48.152;11.528;2023-03-21T03:59:40;15.40;43.00
3868;DHT22;1949;48.152;11.528;2023-03-21T04:02:09;15.40;43.00
3868;DHT22;1949;48.152;11.528;2023-03-21T04:04:47;15.40;43.00
3868;DHT22;1949;48.152;11.528;2023-03-21T04:07:20;15.40;43.00
3868;DHT22;1949;48.152;11.528;2023-03-21T04:09:59;15.50;43.10
3868;DHT22;1949;48.152;11.528;2023-03-21T04:12:34;15.40;43.00
3868;DHT22;1949;48.152;11.528;2023-03-21T04:15:03;15.40;42.90
3868;DHT22;1949;48.152;11.528;2023-03-21T04:17:31;15.40;42.90
3868;DHT22;1949;48.152;11.528;2023-03-21T04:20:02;15.30;42.80
3868;DHT22;1949;48.152;11.528;2023-03-21T04:22:31;15.20;42.90
3868;DHT22;1949;48.152;11.528;2023-03-21T04:25:04;15.20;42.90
3868;DHT22;1949;48.152;11.528;2023-03-21T04:27:35;15.20;43.10
3868;DHT22;1949;48.152;11.528;2023-03-21T04:30:01;15.20;43.20
3868;DHT22;1949;48.152;11.528;2023-03-21T04:32:28;15.20;43.20
3868;DHT22;1949;48.152;11.528;2023-03-21T04:34:53;15.20;43.10
3868;DHT22;1949;48.152;11.528;2023-03-21T04:37:20;15.20;43.00
3868;DHT22;1949;48.152;11.528;2023-03-21T04:39:50;15.20;43.00
3868;DHT22;1949;48.152;11.528;2023-03-21T04:42:22;15.20;42.90
3868;DHT22;1949;48.152;11.528;2023-03-21T04:44:48;15.20;43.00
3868;DHT22;1949;48.152;11.528;2023-03-21T04:47:30;15.10;42.90
3868;DHT22;1949;48.152;11.528;2023-03-21T04:49:55;15.00;42.90
3868;DHT22;1949;48.152;11.528;2023-03-21T04:52:22;15.00;43.20
3868;DHT22;1949;48.152;11.528;2023-03-21T04:54:48;15.00;43.30
3868;DHT22;1949;48.152;11.528;2023-03-21T04:57:18;15.00;43.30
3868;DHT22;1949;48.152;11.528;2023-03-21T04:59:45;15.00;43.20
3868;DHT22;1949;48.152;11.528;2023-03-21T05:02:12;15.10;43.30
3868;DHT22;1949;48.152;11.528;2023-03-21T05:04:38;15.10;43.20
3868;DHT22;1949;48.152;11.528;2023-03-21T05:07:05;15.00;43.10
3868;DHT22;1949;48.152;11.528;2023-03-21T05:09:37;15.00;43.20
3868;DHT22;1949;48.152;11.528;2023-03-21T05:12:03;15.00;43.40
3868;DHT22;1949;48.152;11.528;2023-03-21T05:14:36;15.00;43.40
3868;DHT22;1949;48.152;11.528;2023-03-21T05:17:02;15.00;43.30
3868;DHT22;1949;48.152;11.528;2023-03-21T05:19:44;15.00;43.30
3868;DHT22;1949;48.152;11.528;2023-03-21T05:22:10;15.00;43.30
3868;DHT22;1949;48.152;11.528;2023-03-21T05:24:36;15.00;43.30
3868;DHT22;1949;48.152;11.528;2023-03-21T05:27:07;14.90;43.00
3868;DHT22;1949;48.152;11.528;2023-03-21T05:29:42;14.90;43.20
3868;DHT22;1949;48.152;11.528;2023-03-21T05:32:07;14.80;43.30
3868;DHT22;1949;48.152;11.528;2023-03-21T05:34:34;14.70;43.30
3868;DHT22;1949;48.152;11.528;2023-03-21T05:37:10;14.70;43.50
3868;DHT22;1949;48.152;11.528;2023-03-21T05:39:38;14.80;43.60
3868;DHT22;1949;48.152;11.528;2023-03-21T05:42:04;14.80;43.60
3868;DHT22;1949;48.152;11.528;2023-03-21T05:44:32;14.80;43.60
3868;DHT22;1949;48.152;11.528;2023-03-21T05:46:58;14.80;43.50
3868;DHT22;1949;48.152;11.528;2023-03-21T05:49:24;14.80;43.60
3868;DHT22;1949;48.152;11.528;2023-03-21T05:51:51;14.80;43.60
3868;DHT22;1949;48.152;11.528;2023-03-21T05:54:17;14.80;43.60
3868;DHT22;1949;48.152;11.528;2023-03-21T05:56:49;14.80;43.50
3868;DHT22;1949;48.152;11.528;2023-03-21T05:59:15;14.80;43.70
3868;DHT22;1949;48.152;11.528;2023-03-21T06:01:42;14.80;43.70
3868;DHT22;1949;48.152;11.528;2023-03-21T06:04:10;14.80;43.80
3868;DHT22;1949;48.152;11.528;2023-03-21T06:06:47;14.90;43.80
3868;DHT22;1949;48.152;11.528;2023-03-21T06:12:30;15.00;43.60
3868;DHT22;1949;48.152;11.528;2023-03-21T06:18:07;15.10;43.60
3868;DHT22;1949;48.152;11.528;2023-03-21T06:27:53;15.20;43.50
3868;DHT22;1949;48.152;11.528;2023-03-21T06:47:44;15.30;43.50
3868;DHT22;1949;48.152;11.528;2023-03-21T06:50:34;15.30;43.30
3868;DHT22;1949;48.152;11.528;2023-03-21T06:53:00;15.30;43.20
3868;DHT22;1949;48.152;11.528;2023-03-21T06:55:26;15.30;43.30
3868;DHT22;1949;48.152;11.528;2023-03-21T06:58:25;15.30;43.30
3868;DHT22;1949;48.152;11.528;2023-03-21T07:00:51;15.30;43.30
3868;DHT22;1949;48.152;11.528;2023-03-21T07:03:17;15.30;43.10
3868;DHT22;1949;48.152;11.528;2023-03-21T07:05:43;15.20;43.00
3868;DHT22;1949;48.152;11.528;2023-03-21T07:08:09;15.30;43.20
3868;DHT22;1949;48.152;11.528;2023-03-21T07:10:54;15.20;43.30
3868;DHT22;1949;48.152;11.528;2023-03-21T07:16:43;15.30;43.30
3868;DHT22;1949;48.152;11.528;2023-03-21T07:19:08;15.30;43.10
3868;DHT22;1949;48.152;11.528;2023-03-21T07:24:55;15.30;43.10
3868;DHT22;1949;48.152;11.528;2023-03-21T07:33:47;15.20;43.00
3868;DHT22;1949;48.152;11.528;2023-03-21T07:43:00;15.20;43.10
3868;DHT22;1949;48.152;11.528;2023-03-21T07:45:25;15.30;43.30
3868;DHT22;1949;48.152;11.528;2023-03-21T07:47:52;15.30;43.10
3868;DHT22;1949;48.152;11.528;2023-03-21T07:50:18;15.30;43.10
3868;DHT22;1949;48.152;11.528;2023-03-21T07:52:44;15.40;43.20
3868;DHT22;1949;48.152;11.528;2023-03-21T07:55:10;15.40;43.10
3868;DHT22;1949;48.152;11.528;2023-03-21T07:57:36;15.50;43.00
3868;DHT22;1949;48.152;11.528;2023-03-21T08:00:03;15.50;43.00
3868;DHT22;1949;48.152;11.528;2023-03-21T08:02:31;15.50;42.80
3868;DHT22;1949;48.152;11.528;2023-03-21T08:04:56;15.60;42.80
3868;DHT22;1949;48.152;11.528;2023-03-21T08:07:22;15.60;42.80
3868;DHT22;1949;48.152;11.528;2023-03-21T08:09:47;15.60;42.80
3868;DHT22;1949;48.152;11.528;2023-03-21T08:12:13;15.60;42.80
3868;DHT22;1949;48.152;11.528;2023-03-21T08:18:01;15.70;42.80
3868;DHT22;1949;48.152;11.528;2023-03-21T08:26:33;15.80;42.80
3868;DHT22;1949;48.152;11.528;2023-03-21T08:28:59;15.80;42.70
3868;DHT22;1949;48.152;11.528;2023-03-21T08:31:24;15.80;42.70
3868;DHT22;1949;48.152;11.528;2023-03-21T08:33:50;15.90;42.70
3868;DHT22;1949;48.152;11.528;2023-03-21T08:36:22;15.90;42.60
3868;DHT22;1949;48.152;11.528;2023-03-21T08:38:48;15.90;42.60
3868;DHT22;1949;48.152;11.528;2023-03-21T08:41:18;15.90;42.60
3868;DHT22;1949;48.152;11.528;2023-03-21T08:43:47;16.00;42.60
3868;DHT22;1949;48.152;11.528;2023-03-21T08:46:13;16.00;42.60
3868;DHT22;1949;48.152;11.528;2023-03-21T08:51:55;16.00;42.30
3868;DHT22;1949;48.152;11.528;2023-03-21T08:54:21;15.90;42.30
3868;DHT22;1949;48.152;11.528;2023-03-21T08:56:47;15.90;42.40
3868;DHT22;1949;48.152;11.528;2023-03-21T08:59:13;15.90;42.20
3868;DHT22;1949;48.152;11.528;2023-03-21T09:01:43;15.90;42.30
3868;DHT22;1949;48.152;11.528;2023-03-21T09:07:31;15.90;42.40
3868;DHT22;1949;48.152;11.528;2023-03-21T09:10:16;16.00;42.30
3868;DHT22;1949;48.152;11.528;2023-03-21T09:16:04;16.10;42.50
3868;DHT22;1949;48.152;11.528;2023-03-21T09:19:02;16.10;42.20
3868;DHT22;1949;48.152;11.528;2023-03-21T09:24:51;16.20;42.20
3868;DHT22;1949;48.152;11.528;2023-03-21T09:27:18;16.30;42.20
3868;DHT22;1949;48.152;11.528;2023-03-21T09:29:48;16.30;42.10
3868;DHT22;1949;48.152;11.528;2023-03-21T09:35:36;16.40;42.20
3868;DHT22;1949;48.152;11.528;2023-03-21T09:38:02;16.40;42.00
3868;DHT22;1949;48.152;11.528;2023-03-21T09:44:09;16.40;41.70
3868;DHT22;1949;48.152;11.528;2023-03-21T09:47:16;16.40;41.80
3868;DHT22;1949;48.152;11.528;2023-03-21T09:53:21;16.40;42.00
3868;DHT22;1949;48.152;11.528;2023-03-21T10:02:56;16.50;41.60
3868;DHT22;1949;48.152;11.528;2023-03-21T10:08:46;16.50;41.50
3868;DHT22;1949;48.152;11.528;2023-03-21T10:14:44;16.60;41.70
3868;DHT22;1949;48.152;11.528;2023-03-21T10:17:46;16.60;41.60
3868;DHT22;1949;48.152;11.528;2023-03-21T10:20:26;16.70;41.70
3868;DHT22;1949;48.152;11.528;2023-03-21T10:23:27;16.70;41.60
3868;DHT22;1949;48.152;11.528;2023-03-21T10:29:26;16.80;41.40
3868;DHT22;1949;48.152;11.528;2023-03-21T10:31:53;16.80;41.50
3868;DHT22;1949;48.152;11.528;2023-03-21T10:34:42;16.80;41.50
3868;DHT22;1949;48.152;11.528;2023-03-21T10:37:11;16.80;41.10
3868;DHT22;1949;48.152;11.528;2023-03-21T10:39:45;16.80;41.10
3868;DHT22;1949;48.152;11.528;2023-03-21T10:42:21;16.80;41.20
3868;DHT22;1949;48.152;11.528;2023-03-21T10:48:10;16.80;41.10
3868;DHT22;1949;48.152;11.528;2023-03-21T10:54:03;16.80;41.20
3868;DHT22;1949;48.152;11.528;2023-03-21T10:56:35;16.80;41.00
3868;DHT22;1949;48.152;11.528;2023-03-21T10:59:03;16.80;41.10
3868;DHT22;1949;48.152;11.528;2023-03-21T11:01:35;16.80;41.20
3868;DHT22;1949;48.152;11.528;2023-03-21T11:07:27;17.00;41.30
3868;DHT22;1949;48.152;11.528;2023-03-21T11:16:42;17.30;40.80
3868;DHT22;1949;48.152;11.528;2023-03-21T11:19:31;17.20;40.80
3868;DHT22;1949;48.152;11.528;2023-03-21T11:22:02;17.20;41.00
3868;DHT22;1949;48.152;11.528;2023-03-21T11:24:29;17.20;41.00
3868;DHT22;1949;48.152;11.528;2023-03-21T11:33:54;17.50;40.90
3868;DHT22;1949;48.152;11.528;2023-03-21T11:39:43;17.60;41.20
3868;DHT22;1949;48.152;11.528;2023-03-21T11:45:39;17.70;40.70
3868;DHT22;1949;48.152;11.528;2023-03-21T11:52:04;17.90;40.70
3868;DHT22;1949;48.152;11.528;2023-03-21T12:15:30;18.70;40.70
3868;DHT22;1949;48.152;11.528;2023-03-21T12:46:21;20.50;39.00
3868;DHT22;1949;48.152;11.528;2023-03-21T12:49:00;20.70;39.00
3868;DHT22;1949;48.152;11.528;2023-03-21T12:51:37;20.90;38.40
3868;DHT22;1949;48.152;11.528;2023-03-21T12:54:30;21.00;37.50
3868;DHT22;1949;48.152;11.528;2023-03-21T12:57:02;21.10;37.60
3868;DHT22;1949;48.152;11.528;2023-03-21T13:09:38;20.90;37.90
3868;DHT22;1949;48.152;11.528;2023-03-21T13:12:27;21.10;37.30
3868;DHT22;1949;48.152;11.528;2023-03-21T13:27:24;21.20;36.60
3868;DHT22;1949;48.152;11.528;2023-03-21T13:33:14;21.10;36.30
3868;DHT22;1949;48.152;11.528;2023-03-21T13:35:44;21.00;36.10
3868;DHT22;1949;48.152;11.528;2023-03-21T13:38:24;20.90;36.00
3868;DHT22;1949;48.152;11.528;2023-03-21T14:03:19;20.50;36.20
3868;DHT22;1949;48.152;11.528;2023-03-21T14:05:50;20.50;36.10
3868;DHT22;1949;48.152;11.528;2023-03-21T14:08:17;20.60;36.00
3868;DHT22;1949;48.152;11.528;2023-03-21T14:14:05;20.90;35.70
3868;DHT22;1949;48.152;11.528;2023-03-21T14:20:05;21.30;35.70
3868;DHT22;1949;48.152;11.528;2023-03-21T14:22:37;21.60;35.30
3868;DHT22;1949;48.152;11.528;2023-03-21T14:25:05;21.60;34.70
3868;DHT22;1949;48.152;11.528;2023-03-21T14:27:33;21.60;34.50
3868;DHT22;1949;48.152;11.528;2023-03-21T14:39:20;22.70;35.30
3868;DHT22;1949;48.152;11.528;2023-03-21T14:48:32;23.30;34.30
3868;DHT22;1949;48.152;11.528;2023-03-21T14:51:32;23.30;33.40
3868;DHT22;1949;48.152;11.528;2023-03-21T14:57:30;22.70;33.50
3868;DHT22;1949;48.152;11.528;2023-03-21T15:03:21;22.40;33.80
3868;DHT22;1949;48.152;11.528;2023-03-21T15:09:14;22.30;33.70
3868;DHT22;1949;48.152;11.528;2023-03-21T15:15:02;22.10;33.70
3868;DHT22;1949;48.152;11.528;2023-03-21T15:17:28;22.00;33.50
3868;DHT22;1949;48.152;11.528;2023-03-21T15:20:01;21.90;33.70
3868;DHT22;1949;48.152;11.528;2023-03-21T15:22:54;21.70;33.50
3868;DHT22;1949;48.152;11.528;2023-03-21T15:25:29;21.50;33.70
3868;DHT22;1949;48.152;11.528;2023-03-21T15:27:59;21.30;33.70
3868;DHT22;1949;48.152;11.528;2023-03-21T15:30:28;21.20;34.50
3868;DHT22;1949;48.152;11.528;2023-03-21T15:32:55;21.10;33.90
3868;DHT22;1949;48.152;11.528;2023-03-21T15:35:37;21.00;34.00
3868;DHT22;1949;48.152;11.528;2023-03-21T15:38:03;20.90;34.30
3868;DHT22;1949;48.152;11.528;2023-03-21T15:40:33;20.80;34.40
3868;DHT22;1949;48.152;11.528;2023-03-21T15:43:19;20.80;34.30
3868;DHT22;1949;48.152;11.528;2023-03-21T15:45:47;20.70;34.60
3868;DHT22;1949;48.152;11.528;2023-03-21T15:48:21;20.70;34.50
3868;DHT22;1949;48.152;11.528;2023-03-21T15:51:04;20.60;34.50
3868;DHT22;1949;48.152;11.528;2023-03-21T15:53:41;20.50;34.60
3868;DHT22;1949;48.152;11.528;2023-03-21T15:56:12;20.40;34.40
3868;DHT22;1949;48.152;11.528;2023-03-21T15:58:46;20.30;34.50
3868;DHT22;1949;48.152;11.528;2023-03-21T16:01:21;20.20;34.80
3868;DHT22;1949;48.152;11.528;2023-03-21T16:04:05;20.20;34.90
3868;DHT22;1949;48.152;11.528;2023-03-21T16:06:34;20.10;34.80
3868;DHT22;1949;48.152;11.528;2023-03-21T16:09:09;20.00;34.80
3868;DHT22;1949;48.152;11.528;2023-03-21T16:11:42;20.00;34.90
3868;DHT22;1949;48.152;11.528;2023-03-21T16:14:13;19.90;34.90
3868;DHT22;1949;48.152;11.528;2023-03-21T16:16:41;19.80;34.80
3868;DHT22;1949;48.152;11.528;2023-03-21T16:19:07;19.80;35.00
3868;DHT22;1949;48.152;11.528;2023-03-21T16:21:33;19.70;35.00
3868;DHT22;1949;48.152;11.528;2023-03-21T16:24:02;19.70;35.00
3868;DHT22;1949;48.152;11.528;2023-03-21T16:26:32;19.70;35.00
3868;DHT22;1949;48.152;11.528;2023-03-21T16:28:59;19.70;35.10
3868;DHT22;1949;48.152;11.528;2023-03-21T16:31:28;19.70;35.10
3868;DHT22;1949;48.152;11.528;2023-03-21T16:33:54;19.70;35.20
3868;DHT22;1949;48.152;11.528;2023-03-21T16:36:34;19.70;35.10
3868;DHT22;1949;48.152;11.528;2023-03-21T16:39:17;19.70;35.20
3868;DHT22;1949;48.152;11.528;2023-03-21T16:41:44;19.70;35.20
3868;DHT22;1949;48.152;11.528;2023-03-21T16:44:10;19.70;35.30
3868;DHT22;1949;48.152;11.528;2023-03-21T16:46:38;19.70;35.20
3868;DHT22;1949;48.152;11.528;2023-03-21T16:49:17;19.70;35.20
3868;DHT22;1949;48.152;11.528;2023-03-21T16:51:43;19.70;35.20
3868;DHT22;1949;48.152;11.528;2023-03-21T16:54:08;19.60;35.20
3868;DHT22;1949;48.152;11.528;2023-03-21T16:56:49;19.60;35.20
3868;DHT22;1949;48.152;11.528;2023-03-21T16:59:16;19.60;35.20
3868;DHT22;1949;48.152;11.528;2023-03-21T17:01:42;19.60;35.30
3868;DHT22;1949;48.152;11.528;2023-03-21T17:04:12;19.60;35.40
3868;DHT22;1949;48.152;11.528;2023-03-21T17:06:47;19.60;35.50
3868;DHT22;1949;48.152;11.528;2023-03-21T17:09:16;19.60;35.50
3868;DHT22;1949;48.152;11.528;2023-03-21T17:11:44;19.50;35.40
3868;DHT22;1949;48.152;11.528;2023-03-21T17:14:12;19.50;35.40
3868;DHT22;1949;48.152;11.528;2023-03-21T17:16:39;19.50;35.40
3868;DHT22;1949;48.152;11.528;2023-03-21T17:19:19;19.50;35.50
3868;DHT22;1949;48.152;11.528;2023-03-21T17:21:45;19.50;35.60
3868;DHT22;1949;48.152;11.528;2023-03-21T17:24:13;19.50;35.60
3868;DHT22;1949;48.152;11.528;2023-03-21T17:26:40;19.40;35.50
3868;DHT22;1949;48.152;11.528;2023-03-21T17:29:06;19.40;35.60
3868;DHT22;1949;48.152;11.528;2023-03-21T17:31:34;19.50;35.70
3868;DHT22;1949;48.152;11.528;2023-03-21T17:34:01;19.50;35.70
3868;DHT22;1949;48.152;11.528;2023-03-21T17:36:35;19.40;35.50
3868;DHT22;1949;48.152;11.528;2023-03-21T17:39:04;19.40;35.60
3868;DHT22;1949;48.152;11.528;2023-03-21T17:41:32;19.40;35.60
3868;DHT22;1949;48.152;11.528;2023-03-21T17:43:57;19.40;35.60
3868;DHT22;1949;48.152;11.528;2023-03-21T17:46:25;19.30;35.50
3868;DHT22;1949;48.152;11.528;2023-03-21T17:48:52;19.30;35.60
3868;DHT22;1949;48.152;11.528;2023-03-21T17:51:17;19.20;35.60
3868;DHT22;1949;48.152;11.528;2023-03-21T17:53:47;19.30;35.70
3868;DHT22;1949;48.152;11.528;2023-03-21T17:58:43;19.20;35.70
3868;DHT22;1949;48.152;11.528;2023-03-21T18:01:16;19.20;35.80
3868;DHT22;1949;48.152;11.528;2023-03-21T18:03:43;19.20;35.80
3868;DHT22;1949;48.152;11.528;2023-03-21T18:06:15;19.10;36.40
3868;DHT22;1949;48.152;11.528;2023-03-21T18:08:41;19.10;35.80
3868;DHT22;1949;48.152;11.528;2023-03-21T18:11:07;19.00;35.80
3868;DHT22;1949;48.152;11.528;2023-03-21T18:13:34;19.00;35.90
3868;DHT22;1949;48.152;11.528;2023-03-21T18:16:00;19.00;36.00
3868;DHT22;1949;48.152;11.528;2023-03-21T18:18:26;19.00;36.00
3868;DHT22;1949;48.152;11.528;2023-03-21T18:20:52;19.00;36.10
3868;DHT22;1949;48.152;11.528;2023-03-21T18:23:17;19.00;36.10
3868;DHT22;1949;48.152;11.528;2023-03-21T18:25:45;19.00;36.10
3868;DHT22;1949;48.152;11.528;2023-03-21T18:28:11;19.00;36.10
3868;DHT22;1949;48.152;11.528;2023-03-21T18:30:41;19.00;36.10
3868;DHT22;1949;48.152;11.528;2023-03-21T18:33:09;18.90;36.00
3868;DHT22;1949;48.152;11.528;2023-03-21T18:35:37;18.90;36.10
3868;DHT22;1949;48.152;11.528;2023-03-21T18:38:11;18.90;36.20
3868;DHT22;1949;48.152;11.528;2023-03-21T18:40:37;18.90;36.20
3868;DHT22;1949;48.152;11.528;2023-03-21T18:43:04;18.90;36.20
3868;DHT22;1949;48.152;11.528;2023-03-21T18:45:32;18.90;36.20
3868;DHT22;1949;48.152;11.528;2023-03-21T18:47:58;18.90;36.30
3868;DHT22;1949;48.152;11.528;2023-03-21T18:50:33;18.80;36.20
3868;DHT22;1949;48.152;11.528;2023-03-21T18:52:59;18.80;36.30
3868;DHT22;1949;48.152;11.528;2023-03-21T18:55:31;18.80;36.30
3868;DHT22;1949;48.152;11.528;2023-03-21T18:57:59;18.80;36.30
3868;DHT22;1949;48.152;11.528;2023-03-21T19:00:27;18.70;36.30
3868;DHT22;1949;48.152;11.528;2023-03-21T19:02:53;18.70;36.40
3868;DHT22;1949;48.152;11.528;2023-03-21T19:05:24;18.70;36.40
3868;DHT22;1949;48.152;11.528;2023-03-21T19:07:50;18.70;36.50
3868;DHT22;1949;48.152;11.528;2023-03-21T19:10:18;18.70;36.60
3868;DHT22;1949;48.152;11.528;2023-03-21T19:12:48;18.70;36.60
3868;DHT22;1949;48.152;11.528;2023-03-21T19:15:14;18.60;36.50
3868;DHT22;1949;48.152;11.528;2023-03-21T19:17:43;18.60;36.40
3868;DHT22;1949;48.152;11.528;2023-03-21T19:20:10;18.60;36.50
3868;DHT22;1949;48.152;11.528;2023-03-21T19:22:39;18.50;36.60
3868;DHT22;1949;48.152;11.528;2023-03-21T19:25:06;18.50;36.70
3868;DHT22;1949;48.152;11.528;2023-03-21T19:27:34;18.50;36.70
3868;DHT22;1949;48.152;11.528;2023-03-21T19:30:10;18.50;36.70
3868;DHT22;1949;48.152;11.528;2023-03-21T19:32:38;18.50;36.80
3868;DHT22;1949;48.152;11.528;2023-03-21T19:35:05;18.40;36.70
3868;DHT22;1949;48.152;11.528;2023-03-21T19:37:32;18.40;36.80
3868;DHT22;1949;48.152;11.528;2023-03-21T19:40:00;18.40;36.90
3868;DHT22;1949;48.152;11.528;2023-03-21T19:42:26;18.40;36.90
3868;DHT22;1949;48.152;11.528;2023-03-21T19:44:52;18.40;37.00
3868;DHT22;1949;48.152;11.528;2023-03-21T19:47:17;18.40;37.10
3868;DHT22;1949;48.152;11.528;2023-03-21T19:49:43;18.40;37.10
3868;DHT22;1949;48.152;11.528;2023-03-21T19:52:09;18.40;37.20
3868;DHT22;1949;48.152;11.528;2023-03-21T19:54:38;18.30;37.10
3868;DHT22;1949;48.152;11.528;2023-03-21T19:57:04;18.30;37.30
3868;DHT22;1949;48.152;11.528;2023-03-21T19:59:30;18.30;37.30
3868;DHT22;1949;48.152;11.528;2023-03-21T20:01:56;18.30;37.40
3868;DHT22;1949;48.152;11.528;2023-03-21T20:04:23;18.40;37.40
3868;DHT22;1949;48.152;11.528;2023-03-21T20:06:52;18.40;37.50
3868;DHT22;1949;48.152;11.528;2023-03-21T20:09:21;18.40;37.40
3868;DHT22;1949;48.152;11.528;2023-03-21T20:11:48;18.40;37.40
3868;DHT22;1949;48.152;11.528;2023-03-21T20:14:20;18.30;37.40
3868;DHT22;1949;48.152;11.528;2023-03-21T20:16:47;18.30;37.60
3868;DHT22;1949;48.152;11.528;2023-03-21T20:19:14;18.30;37.70
3868;DHT22;1949;48.152;11.528;2023-03-21T20:21:45;18.20;37.60
3868;DHT22;1949;48.152;11.528;2023-03-21T20:24:14;18.20;37.70
3868;DHT22;1949;48.152;11.528;2023-03-21T20:26:41;18.20;37.70
3868;DHT22;1949;48.152;11.528;2023-03-21T20:29:09;18.30;37.90
3868;DHT22;1949;48.152;11.528;2023-03-21T20:31:37;18.30;37.90
3868;DHT22;1949;48.152;11.528;2023-03-21T20:34:03;18.40;37.90
3868;DHT22;1949;48.152;11.528;2023-03-21T20:36:30;18.40;37.90
3868;DHT22;1949;48.152;11.528;2023-03-21T20:38:59;18.40;37.80
3868;DHT22;1949;48.152;11.528;2023-03-21T20:41:26;18.40;37.90
3868;DHT22;1949;48.152;11.528;2023-03-21T20:43:57;18.40;37.80
3868;DHT22;1949;48.152;11.528;2023-03-21T20:46:25;18.50;38.00
3868;DHT22;1949;48.152;11.528;2023-03-21T20:48:53;18.50;37.90
3868;DHT22;1949;48.152;11.528;2023-03-21T20:51:21;18.50;37.90
3868;DHT22;1949;48.152;11.528;2023-03-21T20:53:52;18.50;38.00
3868;DHT22;1949;48.152;11.528;2023-03-21T20:56:18;18.50;38.00
3868;DHT22;1949;48.152;11.528;2023-03-21T20:58:45;18.50;38.00
3868;DHT22;1949;48.152;11.528;2023-03-21T21:01:13;18.50;38.00
3868;DHT22;1949;48.152;11.528;2023-03-21T21:03:40;18.50;38.00
3868;DHT22;1949;48.152;11.528;2023-03-21T21:06:18;18.50;38.00
3868;DHT22;1949;48.152;11.528;2023-03-21T21:08:45;18.50;38.00
3868;DHT22;1949;48.152;11.528;2023-03-21T21:11:17;18.40;37.90
3868;DHT22;1949;48.152;11.528;2023-03-21T21:13:44;18.30;38.00
3868;DHT22;1949;48.152;11.528;2023-03-21T21:16:45;18.20;38.00
3868;DHT22;1949;48.152;11.528;2023-03-21T21:25:57;17.80;38.00
3868;DHT22;1949;48.152;11.528;2023-03-21T21:31:46;17.60;38.30
3868;DHT22;1949;48.152;11.528;2023-03-21T21:37:48;17.50;38.20